createdAt,value
2023-01-20T00:01:43.254Z,2.25
2023-01-20T00:04:12.749Z,2.67
2023-01-20T00:06:42.594Z,2.20
2023-01-20T00:09:14.658Z,2.15
2023-01-20T00:11:41.403Z,2.10
2023-01-20T00:14:10.509Z,2.30
2023-01-20T00:16:37.090Z,2.10
2023-01-20T00:19:03.650Z,2.33
2023-01-20T00:21:30.344Z,2.50
2023-01-20T00:23:56.872Z,2.60
2023-01-20T00:26:25.439Z,2.20
2023-01-20T00:28:57.514Z,2.30
2023-01-20T00:31:24.293Z,2.30
2023-01-20T00:33:55.336Z,2.67
2023-01-20T00:36:25.406Z,2.20
2023-01-20T00:38:52.467Z,2.67
2023-01-20T00:43:46.590Z,2.60
2023-01-20T00:46:13.849Z,2.33
2023-01-20T00:48:40.804Z,2.65
2023-01-20T00:51:08.882Z,2.78
2023-01-20T00:53:35.551Z,2.60
2023-01-20T00:56:02.304Z,2.65
2023-01-20T00:58:28.977Z,2.65
2023-01-20T01:00:56.144Z,3.22
2023-01-20T01:03:22.884Z,2.90
2023-01-20T01:05:49.877Z,2.72
2023-01-20T01:10:42.972Z,2.40
2023-01-20T01:13:12.538Z,2.97
2023-01-20T01:15:39.167Z,2.42
2023-01-20T01:18:05.743Z,2.50
2023-01-20T01:20:32.503Z,4.50
2023-01-20T01:22:59.024Z,2.88
2023-01-20T01:25:25.766Z,3.30
2023-01-20T01:27:52.384Z,3.28
2023-01-20T01:30:19.168Z,3.05
2023-01-20T01:32:45.648Z,3.05
2023-01-20T01:35:12.683Z,2.78
2023-01-20T01:37:41.775Z,3.40
2023-01-20T01:40:09.426Z,3.00
2023-01-20T01:42:36.260Z,3.22
2023-01-20T01:45:12.037Z,2.95
2023-01-20T01:47:46.640Z,3.20
2023-01-20T01:50:19.145Z,3.20
2023-01-20T01:52:50.155Z,3.25
2023-01-20T01:55:19.104Z,3.90
2023-01-20T01:57:47.570Z,3.25
2023-01-20T02:00:14.515Z,4.10
2023-01-20T02:02:43.764Z,3.70
2023-01-20T02:05:13.848Z,3.38
2023-01-20T02:07:44.092Z,3.83
2023-01-20T02:10:11.551Z,3.45
2023-01-20T02:12:39.113Z,3.53
2023-01-20T02:15:06.393Z,4.13
2023-01-20T02:17:40.086Z,3.88
2023-01-20T02:20:24.882Z,3.20
2023-01-20T02:23:12.718Z,3.22
2023-01-20T02:26:07.357Z,3.65
2023-01-20T02:28:37.094Z,3.67
2023-01-20T02:31:14.806Z,4.20
2023-01-20T02:33:57.843Z,3.75
2023-01-20T02:36:34.777Z,4.30
2023-01-20T02:39:13.712Z,3.70
2023-01-20T02:42:23.420Z,4.40
2023-01-20T02:44:55.714Z,4.30
2023-01-20T02:47:35.722Z,4.30
2023-01-20T02:50:14.310Z,5.20
2023-01-20T02:52:46.075Z,5.32
2023-01-20T02:55:22.509Z,6.57
2023-01-20T02:58:00.827Z,6.75
2023-01-20T03:00:34.487Z,6.72
2023-01-20T03:03:06.066Z,9.57
2023-01-20T03:05:37.840Z,7.43
2023-01-20T03:08:08.820Z,8.20
2023-01-20T03:10:37.686Z,9.38
2023-01-20T03:13:32.629Z,8.63
2023-01-20T03:16:13.799Z,10.60
2023-01-20T03:18:40.590Z,9.27
2023-01-20T03:21:10.084Z,9.65
2023-01-20T03:23:42.890Z,10.07
2023-01-20T03:26:13.477Z,9.70
2023-01-20T03:28:50.636Z,9.30
2023-01-20T03:31:29.905Z,8.77
2023-01-20T03:33:59.939Z,9.98
2023-01-20T03:36:29.856Z,9.88
2023-01-20T03:38:58.529Z,9.80
2023-01-20T03:41:32.658Z,11.32
2023-01-20T03:44:21.469Z,11.32
2023-01-20T03:47:11.983Z,10.32
2023-01-20T03:49:51.711Z,10.63
2023-01-20T03:52:47.617Z,12.27
2023-01-20T03:55:26.629Z,10.23
2023-01-20T03:58:04.753Z,10.55
2023-01-20T04:00:37.665Z,9.77
2023-01-20T04:03:14.063Z,11.60
2023-01-20T04:05:43.093Z,12.75
2023-01-20T04:08:12.330Z,10.77
2023-01-20T04:10:42.781Z,11.82
2023-01-20T04:13:09.753Z,11.75
2023-01-20T04:18:18.292Z,12.63
2023-01-20T04:20:53.499Z,13.48
2023-01-20T04:23:34.847Z,15.95
2023-01-20T04:26:03.952Z,14.23
2023-01-20T04:28:31.470Z,13.10
2023-01-20T04:30:58.190Z,15.98
2023-01-20T04:33:25.100Z,14.45
2023-01-20T04:35:51.538Z,14.52
2023-01-20T04:38:17.967Z,16.30
2023-01-20T04:40:45.214Z,14.27
2023-01-20T04:43:12.513Z,15.18
2023-01-20T04:45:41.325Z,16.02
2023-01-20T04:48:08.807Z,18.33
2023-01-20T04:50:40.453Z,20.58
2023-01-20T04:53:09.240Z,17.55
2023-01-20T04:55:35.755Z,17.45
2023-01-20T04:58:02.556Z,16.98
2023-01-20T05:00:29.058Z,18.55
2023-01-20T05:02:59.057Z,20.27
2023-01-20T05:05:25.699Z,18.20
2023-01-20T05:07:53.567Z,19.23
2023-01-20T05:10:20.917Z,17.98
2023-01-20T05:12:47.816Z,25.88
2023-01-20T05:15:15.016Z,19.88
2023-01-20T05:17:42.358Z,20.98
2023-01-20T05:20:10.052Z,19.33
2023-01-20T05:22:36.620Z,22.05
2023-01-20T05:25:03.151Z,18.80
2023-01-20T05:27:30.435Z,20.50
2023-01-20T05:29:56.911Z,20.17
2023-01-20T05:32:23.767Z,19.83
2023-01-20T05:34:50.413Z,22.80
2023-01-20T05:37:18.392Z,21.08
2023-01-20T05:39:45.120Z,19.55
2023-01-20T05:42:11.612Z,18.33
2023-01-20T05:44:38.122Z,25.58
2023-01-20T05:47:05.111Z,20.58
2023-01-20T05:49:31.667Z,18.98
2023-01-20T05:51:58.145Z,18.30
2023-01-20T05:54:26.218Z,17.52
2023-01-20T05:56:53.013Z,19.77
2023-01-20T06:01:46.395Z,24.48
2023-01-20T06:04:15.139Z,19.17
2023-01-20T06:06:42.293Z,18.80
2023-01-20T06:09:10.901Z,23.05
2023-01-20T06:11:37.351Z,20.13
2023-01-20T06:14:04.217Z,19.27
2023-01-20T06:16:30.870Z,19.73
2023-01-20T06:18:57.644Z,18.80
2023-01-20T06:21:24.982Z,21.48
2023-01-20T06:23:53.476Z,20.58
2023-01-20T06:26:20.390Z,19.77
2023-01-20T06:28:46.875Z,17.15
2023-01-20T06:31:16.238Z,19.27
2023-01-20T06:33:43.526Z,19.92
2023-01-20T06:36:14.703Z,19.13
2023-01-20T06:38:41.463Z,19.60
2023-01-20T06:41:15.233Z,23.25
2023-01-20T06:43:42.110Z,19.77
2023-01-20T06:48:37.837Z,19.58
2023-01-20T06:51:07.375Z,18.70
2023-01-20T06:53:34.952Z,18.42
2023-01-20T06:56:02.479Z,18.98
2023-01-20T06:58:31.094Z,20.77
2023-01-20T07:00:59.261Z,18.67
2023-01-20T07:03:26.000Z,19.92
2023-01-20T07:06:01.477Z,25.42
2023-01-20T07:08:28.979Z,23.35
2023-01-20T07:10:56.074Z,20.45
2023-01-20T07:13:22.959Z,18.38
2023-01-20T07:15:49.849Z,17.67
2023-01-20T07:18:17.093Z,18.95
2023-01-20T07:20:44.188Z,17.63
2023-01-20T07:23:10.854Z,18.65
2023-01-20T07:25:38.504Z,17.80
2023-01-20T07:28:05.603Z,19.17
2023-01-20T07:30:32.370Z,17.38
2023-01-20T07:32:58.843Z,17.02
2023-01-20T07:35:25.602Z,18.38
2023-01-20T07:37:52.560Z,18.38
2023-01-20T07:40:22.667Z,17.83
2023-01-20T07:42:50.089Z,17.20
2023-01-20T07:47:51.240Z,19.73
2023-01-20T07:50:25.657Z,17.88
2023-01-20T07:52:56.301Z,17.55
2023-01-20T07:55:25.010Z,18.23
2023-01-20T07:57:56.237Z,17.08
2023-01-20T08:00:22.911Z,19.63
2023-01-20T08:02:52.484Z,16.95
2023-01-20T08:05:19.036Z,17.63
2023-01-20T08:07:50.307Z,17.48
2023-01-20T08:10:17.075Z,16.92
2023-01-20T08:12:43.664Z,18.15
2023-01-20T08:15:10.948Z,16.20
2023-01-20T08:17:37.578Z,15.63
2023-01-20T08:20:04.733Z,16.60
2023-01-20T08:22:31.160Z,17.85
2023-01-20T08:24:57.623Z,15.05
2023-01-20T08:27:24.128Z,14.00
2023-01-20T08:29:50.732Z,15.38
2023-01-20T08:32:17.218Z,17.05
2023-01-20T08:34:43.671Z,18.48
2023-01-20T08:37:10.239Z,16.35
2023-01-20T08:39:36.826Z,14.93
2023-01-20T08:42:03.472Z,17.15
2023-01-20T08:44:30.241Z,14.43
2023-01-20T08:46:59.472Z,16.77
2023-01-20T08:49:26.127Z,13.10
2023-01-20T08:51:52.661Z,14.63
2023-01-20T08:54:19.829Z,15.48
2023-01-20T08:56:50.810Z,13.95
2023-01-20T08:59:17.937Z,14.05
2023-01-20T09:01:45.581Z,15.43
2023-01-20T09:04:12.678Z,13.70
2023-01-20T09:06:57.194Z,14.13
2023-01-20T09:09:23.884Z,13.50
2023-01-20T09:11:53.680Z,14.05
2023-01-20T09:14:22.548Z,13.50
2023-01-20T09:16:49.626Z,14.30
2023-01-20T09:21:44.382Z,11.50
2023-01-20T09:24:11.160Z,12.75
2023-01-20T09:26:40.240Z,13.18
2023-01-20T09:29:12.855Z,11.27
2023-01-20T09:31:54.073Z,11.20
2023-01-20T09:34:24.918Z,12.40
2023-01-20T09:37:18.554Z,12.50
2023-01-20T09:40:04.746Z,11.40
2023-01-20T09:43:23.820Z,10.75
2023-01-20T09:45:59.571Z,12.82
2023-01-20T09:49:19.774Z,13.70
2023-01-20T09:52:19.926Z,12.30
2023-01-20T09:55:17.126Z,11.40
2023-01-20T09:57:53.463Z,12.52
2023-01-20T10:00:23.867Z,11.57
2023-01-20T10:02:55.649Z,12.68
2023-01-20T10:05:32.960Z,11.55
2023-01-20T10:08:10.648Z,11.75
2023-01-20T10:10:45.778Z,11.85
2023-01-20T10:13:18.266Z,10.85
2023-01-20T10:15:52.750Z,14.30
2023-01-20T10:18:35.041Z,12.90
2023-01-20T10:21:11.328Z,12.48
2023-01-20T10:23:52.831Z,9.68
2023-01-20T10:26:28.865Z,12.13
2023-01-20T10:29:01.519Z,12.35
2023-01-20T10:31:33.676Z,11.35
2023-01-20T10:34:08.940Z,11.85
2023-01-20T10:36:35.689Z,10.98
2023-01-20T10:39:10.246Z,11.98
2023-01-20T10:41:45.506Z,11.30
2023-01-20T10:44:14.444Z,12.13
2023-01-20T10:47:16.872Z,12.10
2023-01-20T10:50:02.483Z,12.20
2023-01-20T10:52:46.612Z,12.82
2023-01-20T10:55:47.665Z,11.98
2023-01-20T10:58:18.345Z,10.55
2023-01-20T11:00:45.230Z,11.50
2023-01-20T11:03:17.826Z,11.48
2023-01-20T11:05:46.727Z,11.23
2023-01-20T11:08:29.691Z,10.90
2023-01-20T11:11:09.312Z,11.15
2023-01-20T11:13:35.825Z,15.30
2023-01-20T11:16:36.984Z,12.43
2023-01-20T11:19:07.495Z,12.20
2023-01-20T11:21:36.979Z,11.68
2023-01-20T11:24:34.796Z,11.93
2023-01-20T11:27:14.485Z,12.25
2023-01-20T11:29:46.165Z,13.30
2023-01-20T11:32:37.107Z,13.25
2023-01-20T11:35:24.621Z,10.60
2023-01-20T11:37:51.742Z,11.00
2023-01-20T11:42:48.409Z,9.20
2023-01-20T11:45:25.697Z,10.30
2023-01-20T11:48:16.878Z,11.77
2023-01-20T11:50:56.121Z,11.65
2023-01-20T11:53:31.631Z,13.02
2023-01-20T11:56:00.297Z,12.50
2023-01-20T11:58:48.131Z,11.35
2023-01-20T12:01:23.509Z,10.98
2023-01-20T12:03:59.973Z,11.48
2023-01-20T12:06:30.913Z,10.43
2023-01-20T12:09:10.250Z,10.55
2023-01-20T12:11:42.878Z,9.98
2023-01-20T12:14:22.922Z,11.20
2023-01-20T12:17:05.334Z,11.50
2023-01-20T12:19:53.783Z,10.23
2023-01-20T12:22:34.599Z,11.32
2023-01-20T12:25:14.568Z,11.52
2023-01-20T12:27:46.604Z,10.82
2023-01-20T12:30:43.424Z,11.82
2023-01-20T12:33:26.004Z,11.60
2023-01-20T12:36:24.822Z,10.93
2023-01-20T12:39:25.498Z,11.10
2023-01-20T12:42:10.325Z,11.25
2023-01-20T12:44:48.475Z,11.05
2023-01-20T12:47:45.126Z,11.45
2023-01-20T12:50:29.615Z,11.70
2023-01-20T12:53:42.495Z,10.60
2023-01-20T12:56:27.703Z,9.32
2023-01-20T12:59:20.717Z,10.40
2023-01-20T13:01:57.707Z,10.52
2023-01-20T13:04:33.422Z,11.77
2023-01-20T13:07:00.190Z,10.55
2023-01-20T13:09:36.869Z,9.95
2023-01-20T13:12:30.877Z,9.43
2023-01-20T13:15:19.087Z,9.68
2023-01-20T13:18:04.464Z,9.20
2023-01-20T13:20:31.087Z,9.27
2023-01-20T13:23:03.347Z,8.93
2023-01-20T13:25:30.955Z,9.48
2023-01-20T13:27:58.060Z,8.65
2023-01-20T13:30:50.753Z,11.60
2023-01-20T13:33:32.956Z,10.27
2023-01-20T13:36:20.602Z,11.52
2023-01-20T13:38:49.309Z,11.98
2023-01-20T13:41:52.954Z,11.63
2023-01-20T13:44:35.629Z,10.45
2023-01-20T13:47:03.273Z,11.00
2023-01-20T13:49:53.646Z,12.85
2023-01-20T13:53:03.028Z,13.10
2023-01-20T13:55:41.617Z,12.10
2023-01-20T13:58:28.564Z,11.18
2023-01-20T14:01:03.916Z,9.68
2023-01-20T14:03:35.101Z,10.45
2023-01-20T14:06:01.684Z,10.48
2023-01-20T14:08:52.697Z,11.88
2023-01-20T14:11:24.557Z,10.93
2023-01-20T14:13:54.154Z,9.95
2023-01-20T14:16:26.646Z,9.85
2023-01-20T14:18:55.627Z,11.18
2023-01-20T14:21:25.178Z,10.88
2023-01-20T14:23:52.404Z,12.40
2023-01-20T14:26:30.211Z,13.07
2023-01-20T14:29:03.023Z,11.57
2023-01-20T14:31:33.182Z,11.70
2023-01-20T14:34:18.866Z,10.60
2023-01-20T14:36:46.534Z,11.95
2023-01-20T14:39:22.641Z,9.70
2023-01-20T14:41:52.389Z,10.35
2023-01-20T14:44:25.269Z,10.25
2023-01-20T14:46:54.153Z,11.10
2023-01-20T14:49:24.129Z,13.13
2023-01-20T14:51:51.751Z,11.40
2023-01-20T14:54:34.622Z,10.27
2023-01-20T14:57:24.947Z,10.45
2023-01-20T15:00:22.607Z,9.60
2023-01-20T15:03:09.998Z,11.05
2023-01-20T15:05:42.525Z,10.60
2023-01-20T15:08:12.209Z,10.77
2023-01-20T15:10:39.265Z,10.32
2023-01-20T15:13:23.140Z,10.75
2023-01-20T15:15:49.887Z,9.80
2023-01-20T15:18:21.613Z,9.90
2023-01-20T15:20:49.951Z,9.63
2023-01-20T15:23:19.617Z,8.48
2023-01-20T15:25:46.914Z,8.52
2023-01-20T15:28:27.237Z,7.53
2023-01-20T15:30:55.948Z,8.38
2023-01-20T15:33:23.958Z,8.57
2023-01-20T15:35:54.374Z,8.52
2023-01-20T15:38:21.453Z,9.15
2023-01-20T15:43:16.622Z,8.68
2023-01-20T15:45:43.739Z,9.40
2023-01-20T15:48:16.534Z,9.65
2023-01-20T15:50:43.424Z,10.57
2023-01-20T15:53:12.653Z,10.00
2023-01-20T15:55:48.610Z,10.55
2023-01-20T15:58:30.994Z,10.27
2023-01-20T16:00:58.389Z,8.98
2023-01-20T16:03:26.280Z,10.02
2023-01-20T16:05:55.024Z,10.45
2023-01-20T16:08:24.929Z,10.30
2023-01-20T16:10:51.392Z,9.98
2023-01-20T16:13:17.886Z,11.90
2023-01-20T16:15:44.677Z,12.52
2023-01-20T16:18:17.403Z,13.35
2023-01-20T16:20:45.826Z,12.32
2023-01-20T16:23:13.372Z,12.85
2023-01-20T16:25:40.449Z,14.68
2023-01-20T16:30:41.467Z,11.27
2023-01-20T16:33:20.220Z,11.65
2023-01-20T16:35:47.540Z,11.95
2023-01-20T16:38:16.315Z,12.77
2023-01-20T16:40:53.609Z,12.55
2023-01-20T16:43:21.666Z,12.52
2023-01-20T16:45:54.136Z,15.32
2023-01-20T16:48:25.916Z,13.82
2023-01-20T16:50:52.868Z,13.85
2023-01-20T16:55:48.094Z,12.02
2023-01-20T16:58:16.330Z,12.45
2023-01-20T17:00:43.318Z,12.13
2023-01-20T17:03:12.504Z,14.73
2023-01-20T17:05:39.213Z,13.30
2023-01-20T17:08:05.769Z,15.80
2023-01-20T17:10:32.827Z,16.23
2023-01-20T17:13:02.604Z,15.13
2023-01-20T17:15:29.308Z,13.85
2023-01-20T17:17:58.369Z,13.35
2023-01-20T17:20:30.836Z,14.05
2023-01-20T17:22:57.377Z,16.95
2023-01-20T17:25:24.795Z,15.82
2023-01-20T17:27:51.292Z,14.15
2023-01-20T17:30:18.199Z,14.65
2023-01-20T17:32:48.710Z,14.10
2023-01-20T17:35:16.045Z,20.10
2023-01-20T17:37:42.944Z,15.88
2023-01-20T17:40:11.263Z,16.00
2023-01-20T17:42:37.999Z,15.02
2023-01-20T17:45:05.127Z,13.07
2023-01-20T17:47:31.690Z,12.52
2023-01-20T17:49:58.537Z,13.10
2023-01-20T17:57:18.630Z,9.18
2023-01-20T17:59:46.180Z,9.50
2023-01-20T18:02:13.925Z,10.63
2023-01-20T18:04:40.390Z,13.73
2023-01-20T18:07:07.257Z,13.10
2023-01-20T18:09:33.831Z,13.75
2023-01-20T18:12:00.318Z,12.82
2023-01-20T18:14:26.913Z,16.90
2023-01-20T18:16:54.523Z,15.07
2023-01-20T18:19:21.357Z,13.55
2023-01-20T18:21:47.915Z,12.90
2023-01-20T18:24:14.887Z,11.77
2023-01-20T18:26:45.127Z,12.70
2023-01-20T18:29:16.607Z,16.50
2023-01-20T18:31:44.976Z,15.38
2023-01-20T18:34:15.619Z,13.77
2023-01-20T18:36:46.848Z,13.35
2023-01-20T18:39:18.267Z,12.20
2023-01-20T18:41:46.353Z,11.27
2023-01-20T18:44:12.896Z,11.93
2023-01-20T18:46:40.128Z,11.80
2023-01-20T18:51:36.438Z,10.02
2023-01-20T18:54:07.526Z,10.85
2023-01-20T18:56:34.648Z,10.20
2023-01-20T19:01:46.251Z,11.50
2023-01-20T19:04:13.620Z,12.25
2023-01-20T19:06:42.533Z,11.77
2023-01-20T19:09:10.450Z,11.25
2023-01-20T19:11:39.729Z,13.02
2023-01-20T19:14:08.767Z,14.63
2023-01-20T19:16:42.306Z,13.95
2023-01-20T19:19:10.813Z,14.45
2023-01-20T19:21:37.458Z,14.77
2023-01-20T19:24:06.056Z,16.70
2023-01-20T19:26:35.539Z,16.80
2023-01-20T19:29:08.429Z,17.13
2023-01-20T19:31:38.594Z,22.15
2023-01-20T19:34:06.967Z,24.38
2023-01-20T19:36:34.546Z,19.38
2023-01-20T19:39:01.379Z,20.05
2023-01-20T19:41:35.853Z,17.88
2023-01-20T19:44:06.479Z,16.73
2023-01-20T19:46:35.383Z,14.18
2023-01-20T19:49:02.769Z,14.20
2023-01-20T19:51:31.275Z,13.10
2023-01-20T19:54:00.704Z,14.73
2023-01-20T19:56:30.420Z,12.20
2023-01-20T19:58:58.017Z,12.45
2023-01-20T20:01:30.510Z,12.50
2023-01-20T20:03:58.723Z,12.25
2023-01-20T20:06:32.600Z,11.95
2023-01-20T20:09:01.774Z,11.85
2023-01-20T20:11:29.670Z,10.43
2023-01-20T20:13:59.016Z,10.32
2023-01-20T20:16:27.687Z,11.55
2023-01-20T20:18:55.658Z,9.50
2023-01-20T20:21:25.635Z,11.13
2023-01-20T20:23:54.085Z,12.77
2023-01-20T20:26:22.695Z,13.70
2023-01-20T20:28:51.080Z,13.13
2023-01-20T20:31:18.453Z,14.73
2023-01-20T20:33:48.783Z,12.45
2023-01-20T20:36:15.748Z,12.00
2023-01-20T20:43:37.238Z,8.68
2023-01-20T20:46:06.770Z,8.45
2023-01-20T20:48:33.910Z,8.82
2023-01-20T20:51:10.948Z,9.70
2023-01-20T20:53:37.493Z,10.82
2023-01-20T20:56:15.767Z,12.40
2023-01-20T20:58:59.803Z,10.55
2023-01-20T21:01:28.698Z,10.77
2023-01-20T21:03:57.465Z,12.00
2023-01-20T21:06:24.593Z,10.30
2023-01-20T21:11:18.603Z,8.75
2023-01-20T21:13:45.199Z,11.60
2023-01-20T21:16:16.668Z,10.60
2023-01-20T21:18:43.468Z,11.40
2023-01-20T21:21:13.012Z,11.43
2023-01-20T21:23:43.645Z,12.70
2023-01-20T21:26:13.518Z,14.82
2023-01-20T21:28:40.624Z,12.55
2023-01-20T21:33:36.210Z,12.27
2023-01-20T21:36:05.030Z,13.63
2023-01-20T21:38:32.182Z,13.30
2023-01-20T21:41:04.681Z,11.45
2023-01-20T21:43:58.689Z,11.73
2023-01-20T21:46:28.250Z,12.00
2023-01-20T21:49:14.601Z,15.07
2023-01-20T21:52:00.009Z,14.93
2023-01-20T21:54:30.874Z,14.82
2023-01-20T21:56:58.636Z,14.18
2023-01-20T21:59:25.651Z,14.45
2023-01-20T22:01:52.752Z,13.80
2023-01-20T22:06:46.518Z,13.63
2023-01-20T22:09:13.614Z,13.55
2023-01-20T22:11:40.464Z,12.63
2023-01-20T22:14:07.018Z,14.35
2023-01-20T22:16:34.009Z,13.02
2023-01-20T22:21:27.161Z,12.02
2023-01-20T22:23:53.974Z,13.52
2023-01-20T22:26:20.527Z,14.43
2023-01-20T22:28:47.006Z,13.27
2023-01-20T22:31:19.841Z,12.45
2023-01-20T22:33:51.733Z,11.65
2023-01-20T22:36:19.706Z,13.20
2023-01-20T22:38:46.599Z,11.60
2023-01-20T22:41:15.247Z,12.88
2023-01-20T22:43:44.389Z,11.63
2023-01-20T22:46:13.705Z,11.30
2023-01-20T22:48:40.972Z,12.68
2023-01-20T22:51:11.656Z,12.95
2023-01-20T22:53:39.295Z,12.32
2023-01-20T22:56:17.305Z,12.02
2023-01-20T22:58:44.959Z,12.13
2023-01-20T23:01:22.543Z,11.50
2023-01-20T23:03:53.943Z,12.52
2023-01-20T23:06:20.707Z,11.32
2023-01-20T23:08:47.312Z,11.52
2023-01-20T23:11:16.366Z,12.07
2023-01-20T23:13:43.366Z,13.07
2023-01-20T23:16:17.496Z,11.48
2023-01-20T23:18:45.934Z,11.48
2023-01-20T23:21:13.708Z,13.40
2023-01-20T23:23:40.367Z,16.27
2023-01-20T23:26:09.381Z,15.93
2023-01-20T23:28:36.058Z,14.63
2023-01-20T23:31:05.175Z,13.95
2023-01-20T23:33:32.710Z,12.15
2023-01-20T23:36:06.783Z,12.35
2023-01-20T23:38:33.919Z,11.18
2023-01-20T23:43:26.874Z,10.35
2023-01-20T23:45:57.423Z,11.82
2023-01-20T23:48:25.287Z,12.75
2023-01-20T23:50:51.826Z,15.07
2023-01-20T23:53:18.663Z,14.23
2023-01-20T23:58:11.977Z,16.13
